Raleigh County Memorial Airport Beckley US
ICAO: KBKW
IATA: BKW
Category: Medium
Scheduled Services: Yes

Elevation: 2504 ft
TransAlt. 18000 ft.

Airport Communications:
CHARLESTON APP/DEP:118.95
ASOS:121.55
AWOS 3:124.65
ELKINS RDO:117.7
CTAF/UNICOM:123

KBKW Zoom In..

Runways:

(A) RW 01 length 6750 ft width 150 ft
---- / hdg 13

(B) RW 10 length 5001 ft width 100 ft
---- / hdg 103

(C) RW 19 length 6750 ft width 150 ft
ILS 111.70 / hdg 193

(D) RW 28 length 5001 ft width 100 ft
---- / hdg 283

Location; KBKW
Day. 03 / Time. 10.51 Zulu
* Altimeter: 30.13
* Temperature: 17° c. 62.6°f.
* Wind from: 010° Speed 03 kn.
Dewpoint: 17° c.
Visibility: 10 Statute Miles.
Clouds: Scattered 4400 ft.
Clouds: Broken 6500 ft.
Clouds: Broken 8000 ft.

KBKW 031051Z AUTO 01003KT 10SM SCT044 BKN065 BKN080 17/17 A3013 RMK AO2 SLP174 T01720167

Going to: --> -->


Wind From 010°
Speed 03 kn.

 
 
jpsmedia worldairports.se 2020   terms of use